Time;durP1;ratioP1;P1;durP2;ratioP2;P2;SDS_P1;SDS_P2;PMS_P1;PMS_P2;Temp;Humidity;BMP_temperature;BMP_pressure;BME280_temperature;BME280_humidity;BME280_pressure;Samples;Min_cycle;Max_cycle;Signal;HPM_P1;HPM_P2
2021/04/15 00:00:18;;;;;;;;;;;;;;;21.85;27.96;97826.94;5084761;28;1181;-83
2021/04/15 00:02:44;;;;;;;;;;;;;;;21.81;28.01;97814.94;5085059;28;648;-84
2021/04/15 00:05:10;;;;;;;;;;;;;;;21.72;28.39;97811.97;5084204;28;903;-85
2021/04/15 00:07:36;;;;;;;;;;;;;;;21.63;28.26;97820.34;5084757;28;973;-84
2021/04/15 00:10:01;;;;;;;;;;;;;;;21.83;27.76;97820.94;5067713;28;873;-85
2021/04/15 00:12:27;;;;;;;;;;;;;;;21.74;28.12;97820.03;5085469;28;659;-84
2021/04/15 00:14:52;;;;;;;;;;;;;;;21.76;27.66;97812.69;5102103;28;684;-84
2021/04/15 00:17:18;;;;;;;;;;;;;;;21.77;27.80;97819.91;5069044;28;1906;-85
2021/04/15 00:19:43;;;;;;;;;;;;;;;21.67;27.75;97829.53;5067853;28;991;-84
2021/04/15 00:22:10;;;;;;;;;;;;;;;21.57;28.06;97817.28;5085112;28;893;-85
2021/04/15 00:24:35;;;;;;;;;;;;;;;21.57;28.00;97822.16;5084883;28;870;-85
2021/04/15 00:27:01;;;;;;;;;;;;;;;21.24;28.58;97827.91;5084918;28;641;-84
2021/04/15 00:29:26;;;;;;;;;;;;;;;22.57;26.64;97819.03;5118485;28;1442;-85
2021/04/15 00:31:52;;;;;;;;;;;;;;;22.92;25.78;97821.94;5068647;28;693;-85
2021/04/15 00:34:17;;;;;;;;;;;;;;;22.41;26.44;97824.84;5067891;28;1305;-85
2021/04/15 00:36:46;;;;;;;;;;;;;;;21.91;27.32;97832.84;5085354;28;728;-85
2021/04/15 00:39:11;;;;;;;;;;;;;;;21.82;27.39;97830.69;5067692;28;2119;-85
2021/04/15 00:41:37;;;;;;;;;;;;;;;21.81;27.63;97820.63;5084717;28;964;-85
2021/04/15 00:44:02;;;;;;;;;;;;;;;21.93;27.22;97826.75;5085101;28;983;-85
2021/04/15 00:46:31;;;;;;;;;;;;;;;21.94;26.96;97814.16;5085599;28;606;-84
2021/04/15 00:48:56;;;;;;;;;;;;;;;21.87;27.19;97817.22;5084398;28;657;-84
2021/04/15 00:51:29;;;;;;;;;;;;;;;21.78;27.18;97815.84;5052571;28;1162;-85
2021/04/15 00:53:56;;;;;;;;;;;;;;;21.88;27.25;97830.13;5083744;28;946;-86
2021/04/15 00:56:22;;;;;;;;;;;;;;;21.69;27.70;97827.03;5069110;28;1238;-85
2021/04/15 00:58:47;;;;;;;;;;;;;;;21.70;27.61;97833.47;5087364;28;1901;-85
2021/04/15 01:01:13;;;;;;;;;;;;;;;21.82;27.41;97827.88;5071954;28;1152;-86
2021/04/15 01:03:38;;;;;;;;;;;;;;;21.58;27.44;97835.06;5105788;28;646;-84
2021/04/15 01:06:05;;;;;;;;;;;;;;;21.90;27.00;97838.97;5072601;28;730;-85
2021/04/15 01:08:30;;;;;;;;;;;;;;;21.75;27.52;97830.88;5086816;28;895;-85
2021/04/15 01:10:56;;;;;;;;;;;;;;;21.72;27.32;97834.63;5088261;28;846;-86
2021/04/15 01:13:45;;;;;;;;;;;;;;;21.75;27.32;97830.09;5071567;28;1147;-85
2021/04/15 01:16:31;;;;;;;;;;;;;;;21.62;27.48;97830.09;5122759;28;1477;-85
2021/04/15 01:18:56;;;;;;;;;;;;;;;21.70;27.14;97814.47;5087112;28;1972;-84
2021/04/15 01:21:32;;;;;;;;;;;;;;;21.52;27.56;97819.88;5105618;28;789;-85
2021/04/15 01:23:59;;;;;;;;;;;;;;;21.55;27.55;97818.94;5071255;28;1250;-85
2021/04/15 01:26:33;;;;;;;;;;;;;;;21.53;27.45;97822.25;5070939;28;1342;-84
2021/04/15 01:29:18;;;;;;;;;;;;;;;20.92;28.07;97827.97;5071302;28;614;-84
2021/04/15 01:31:43;;;;;;;;;;;;;;;21.60;27.67;97818.41;5105463;28;649;-85
2021/04/15 01:34:32;;;;;;;;;;;;;;;21.58;27.42;97812.41;5105341;28;582;-86
2021/04/15 01:37:02;;;;;;;;;;;;;;;21.43;27.49;97806.34;5094697;28;1098;-85
2021/04/15 01:39:32;;;;;;;;;;;;;;;21.71;26.98;97827.41;5087371;28;1898;-84
2021/04/15 01:41:59;;;;;;;;;;;;;;;22.17;26.35;97839.34;5087492;28;874;-85
2021/04/15 01:44:26;;;;;;;;;;;;;;;21.97;26.62;97838.75;5070927;28;1055;-84
2021/04/15 01:46:54;;;;;;;;;;;;;;;21.71;27.05;97838.72;5088203;28;618;-85
2021/04/15 01:49:19;;;;;;;;;;;;;;;21.79;26.70;97839.28;5070776;28;806;-85
2021/04/15 01:51:46;;;;;;;;;;;;;;;21.82;26.68;97839.19;5071334;28;1171;-85
2021/04/15 01:54:14;;;;;;;;;;;;;;;21.87;26.62;97848.38;5070562;28;1168;-85
2021/04/15 01:56:42;;;;;;;;;;;;;;;21.85;26.53;97838.28;5070615;28;949;-84
2021/04/15 01:59:12;;;;;;;;;;;;;;;21.74;26.94;97845.50;5086816;28;1903;-84
2021/04/15 02:01:39;;;;;;;;;;;;;;;21.54;27.05;97851.34;5088623;28;736;-84
2021/04/15 02:04:05;;;;;;;;;;;;;;;21.64;27.02;97838.91;5053744;28;1267;-84
2021/04/15 02:06:31;;;;;;;;;;;;;;;21.74;26.88;97851.16;5071379;28;1155;-85
2021/04/15 02:08:58;;;;;;;;;;;;;;;21.58;27.54;97852.03;5069978;28;1181;-84
2021/04/15 02:11:24;;;;;;;;;;;;;;;21.56;27.51;97840.38;5070820;28;899;-83
2021/04/15 02:13:49;;;;;;;;;;;;;;;21.58;27.26;97837.88;5086688;28;831;-85
2021/04/15 02:16:16;;;;;;;;;;;;;;;21.52;27.66;97831.19;5087899;28;897;-83
2021/04/15 02:18:57;;;;;;;;;;;;;;;21.63;27.36;97828.84;5086574;28;1971;-84
2021/04/15 02:21:32;;;;;;;;;;;;;;;21.65;27.24;97817.84;5070958;28;1210;-84
2021/04/15 02:24:06;;;;;;;;;;;;;;;21.62;27.54;97807.44;5070543;28;1173;-83
2021/04/15 02:26:32;;;;;;;;;;;;;;;21.53;27.29;97807.28;5087326;28;853;-85
2021/04/15 02:29:10;;;;;;;;;;;;;;;21.66;27.13;97825.13;5087111;28;638;-83
2021/04/15 02:31:46;;;;;;;;;;;;;;;21.61;27.39;97834.16;5105084;28;641;-83
2021/04/15 02:34:35;;;;;;;;;;;;;;;21.45;27.54;97837.03;5087090;28;697;-87
2021/04/15 02:37:03;;;;;;;;;;;;;;;21.37;27.71;97830.00;5094043;28;1018;-85
2021/04/15 02:39:30;;;;;;;;;;;;;;;21.41;27.90;97830.72;5120045;28;1964;-85
2021/04/15 02:41:56;;;;;;;;;;;;;;;21.51;27.83;97835.28;5070115;28;935;-86
2021/04/15 02:44:25;;;;;;;;;;;;;;;21.99;26.83;97830.59;5086485;28;827;-84
2021/04/15 02:46:51;;;;;;;;;;;;;;;22.32;26.47;97854.66;5087601;28;641;-83
2021/04/15 02:49:17;;;;;;;;;;;;;;;22.28;26.33;97853.22;5069010;28;1460;-83
2021/04/15 02:51:57;;;;;;;;;;;;;;;21.89;27.05;97862.88;5085806;28;926;-83
2021/04/15 02:54:27;;;;;;;;;;;;;;;21.67;27.02;97852.19;5085546;28;861;-83
2021/04/15 02:56:54;;;;;;;;;;;;;;;21.60;27.31;97860.88;5086102;28;1201;-83
2021/04/15 02:59:31;;;;;;;;;;;;;;;21.69;27.26;97855.34;5069268;28;1981;-83
2021/04/15 03:01:59;;;;;;;;;;;;;;;21.52;27.73;97865.94;5069398;28;1292;-82
2021/04/15 03:04:24;;;;;;;;;;;;;;;21.46;28.10;97856.44;5069504;28;1317;-86
2021/04/15 03:06:50;;;;;;;;;;;;;;;21.48;27.73;97858.81;5069771;28;1151;-83
2021/04/15 03:09:16;;;;;;;;;;;;;;;21.40;28.25;97858.22;5085798;28;840;-83
2021/04/15 03:11:42;;;;;;;;;;;;;;;21.55;27.87;97861.41;5070381;28;1285;-85
2021/04/15 03:14:09;;;;;;;;;;;;;;;21.57;27.79;97862.56;5069659;28;657;-84
2021/04/15 03:16:39;;;;;;;;;;;;;;;21.55;27.87;97853.75;5086497;28;689;-86
2021/04/15 03:19:06;;;;;;;;;;;;;;;21.46;27.76;97861.28;5068150;28;1961;-85
2021/04/15 03:21:37;;;;;;;;;;;;;;;21.43;28.00;97857.31;5069395;28;1153;-86
2021/04/15 03:24:07;;;;;;;;;;;;;;;21.45;27.88;97856.84;5085594;28;971;-85
2021/04/15 03:26:52;;;;;;;;;;;;;;;21.51;27.94;97869.25;5052939;28;1191;-85
2021/04/15 03:29:28;;;;;;;;;;;;;;;21.45;28.22;97879.50;5068636;28;1175;-85
2021/04/15 03:32:06;;;;;;;;;;;;;;;21.39;28.13;97867.94;5069594;28;988;-85
2021/04/15 03:34:36;;;;;;;;;;;;;;;21.43;27.96;97862.97;5086016;28;648;-83
2021/04/15 03:37:01;;;;;;;;;;;;;;;21.39;28.25;97855.81;5069363;28;1170;-85
2021/04/15 03:39:28;;;;;;;;;;;;;;;21.53;27.76;97866.75;5085631;28;1914;-85
2021/04/15 03:41:56;;;;;;;;;;;;;;;21.37;28.05;97869.63;5069652;28;1474;-85
2021/04/15 03:44:37;;;;;;;;;;;;;;;21.44;28.04;97870.22;5068246;28;1186;-85
2021/04/15 03:47:06;;;;;;;;;;;;;;;21.61;27.67;97868.16;5085769;28;621;-85
2021/04/15 03:49:33;;;;;;;;;;;;;;;22.08;26.91;97867.56;5068732;28;1346;-85
2021/04/15 03:52:03;;;;;;;;;;;;;;;22.27;26.56;97877.91;5085855;28;932;-84
2021/04/15 03:54:34;;;;;;;;;;;;;;;21.77;27.11;97878.59;5085128;28;858;-86
2021/04/15 03:57:00;;;;;;;;;;;;;;;21.56;27.42;97880.03;5086256;28;1117;-84
2021/04/15 03:59:28;;;;;;;;;;;;;;;21.58;27.47;97894.50;5067611;28;1981;-84
2021/04/15 04:01:54;;;;;;;;;;;;;;;21.63;27.66;97879.00;5102223;28;657;-83
2021/04/15 04:04:27;;;;;;;;;;;;;;;21.57;27.96;97876.72;5084702;28;673;-84
2021/04/15 04:06:52;;;;;;;;;;;;;;;21.56;27.81;97871.53;5084726;28;1184;-84
2021/04/15 04:09:22;;;;;;;;;;;;;;;21.58;27.93;97888.84;5067585;28;1175;-84
2021/04/15 04:11:48;;;;;;;;;;;;;;;21.54;28.14;97890.97;5084681;28;665;-84
2021/04/15 04:14:18;;;;;;;;;;;;;;;21.50;28.00;97882.59;5084648;28;627;-83
2021/04/15 04:16:44;;;;;;;;;;;;;;;21.40;27.98;97888.53;5069587;28;749;-85
2021/04/15 04:19:23;;;;;;;;;;;;;;;21.44;27.96;97892.06;5068718;28;1910;-86
2021/04/15 04:21:52;;;;;;;;;;;;;;;21.45;27.90;97899.31;5085764;28;922;-85
2021/04/15 04:24:24;;;;;;;;;;;;;;;22.03;27.06;97902.91;5085520;28;1253;-85
2021/04/15 04:26:54;;;;;;;;;;;;;;;22.27;26.73;97902.63;5085712;28;784;-85
2021/04/15 04:29:32;;;;;;;;;;;;;;;22.42;26.47;97902.97;5085012;28;800;-86
2021/04/15 04:31:58;;;;;;;;;;;;;;;21.82;27.21;97900.72;5089617;28;769;-84
2021/04/15 04:34:24;;;;;;;;;;;;;;;21.59;27.62;97890.44;5072866;28;1292;-85
2021/04/15 04:36:50;;;;;;;;;;;;;;;21.55;27.91;97889.72;5089827;28;956;-86
2021/04/15 04:39:16;;;;;;;;;;;;;;;21.55;28.07;97886.91;5072427;28;1973;-86
2021/04/15 04:41:48;;;;;;;;;;;;;;;21.52;28.23;97870.81;5074009;28;1272;-87
2021/04/15 04:44:14;;;;;;;;;;;;;;;21.57;27.85;97878.78;5089622;28;641;-85
2021/04/15 04:46:40;;;;;;;;;;;;;;;21.57;27.88;97884.44;5072704;28;770;-86
2021/04/15 04:49:06;;;;;;;;;;;;;;;21.55;27.96;97896.22;5107081;28;598;-85
2021/04/15 04:51:41;;;;;;;;;;;;;;;21.54;28.01;97891.78;5089203;28;906;-85
2021/04/15 04:54:07;;;;;;;;;;;;;;;21.49;28.02;97885.84;5072489;28;1384;-86
2021/04/15 04:56:40;;;;;;;;;;;;;;;21.51;27.69;97883.41;5090256;28;1177;-85
2021/04/15 04:59:09;;;;;;;;;;;;;;;21.62;27.61;97892.38;5072760;28;1953;-85
2021/04/15 05:01:34;;;;;;;;;;;;;;;21.43;28.10;97884.81;5073222;28;653;-85
2021/04/15 05:04:00;;;;;;;;;;;;;;;21.49;27.71;97877.38;5089124;28;1014;-85
2021/04/15 05:06:30;;;;;;;;;;;;;;;21.54;27.66;97876.81;5070673;28;1275;-87
2021/04/15 05:08:59;;;;;;;;;;;;;;;21.59;27.60;97879.09;5086103;28;948;-85
2021/04/15 05:11:28;;;;;;;;;;;;;;;21.59;27.42;97870.59;5103637;28;755;-85
2021/04/15 05:13:54;;;;;;;;;;;;;;;21.53;27.60;97873.19;5086050;28;654;-85
2021/04/15 05:16:19;;;;;;;;;;;;;;;21.53;27.37;97889.38;5085927;28;614;-86
2021/04/15 05:18:45;;;;;;;;;;;;;;;21.47;27.31;97882.69;5068602;28;1902;-86
2021/04/15 05:21:15;;;;;;;;;;;;;;;21.43;27.63;97896.94;5085539;28;849;-86
2021/04/15 05:23:42;;;;;;;;;;;;;;;21.42;27.67;97900.22;5068837;28;1285;-86
2021/04/15 05:26:13;;;;;;;;;;;;;;;21.44;27.55;97894.91;5069502;28;667;-85
2021/04/15 05:28:38;;;;;;;;;;;;;;;21.45;27.71;97894.47;5073839;28;641;-85
2021/04/15 05:31:04;;;;;;;;;;;;;;;21.51;27.66;97897.56;5073618;28;1171;-87
2021/04/15 05:33:30;;;;;;;;;;;;;;;21.56;27.47;97908.31;5070772;28;943;-85
2021/04/15 05:36:01;;;;;;;;;;;;;;;21.45;27.47;97921.97;5088360;28;1027;-84
2021/04/15 05:38:26;;;;;;;;;;;;;;;21.58;27.60;97917.16;5071033;28;1911;-85
2021/04/15 05:40:52;;;;;;;;;;;;;;;22.16;26.62;97928.44;5072404;28;1200;-86
2021/04/15 05:43:20;;;;;;;;;;;;;;;22.32;26.35;97933.22;5087138;28;665;-86
2021/04/15 05:45:46;;;;;;;;;;;;;;;22.32;25.74;97931.19;5088709;28;847;-83
2021/04/15 05:48:12;;;;;;;;;;;;;;;21.97;26.41;97941.53;5071317;28;912;-85
2021/04/15 05:50:40;;;;;;;;;;;;;;;21.75;26.79;97947.00;5071851;28;1000;-85
2021/04/15 05:53:12;;;;;;;;;;;;;;;21.51;27.36;97954.16;5088597;28;1300;-85
2021/04/15 05:55:42;;;;;;;;;;;;;;;21.60;27.37;97957.13;5105864;28;617;-85
2021/04/15 05:58:14;;;;;;;;;;;;;;;21.60;27.48;97962.78;5067731;28;1898;-85
2021/04/15 06:00:46;;;;;;;;;;;;;;;21.39;27.86;97963.38;5068095;28;1146;-86
2021/04/15 06:03:21;;;;;;;;;;;;;;;21.59;27.64;97964.03;5067816;28;1174;-83
2021/04/15 06:05:48;;;;;;;;;;;;;;;21.52;27.47;97964.25;5085324;28;614;-86
2021/04/15 06:08:13;;;;;;;;;;;;;;;21.63;27.42;97955.47;5085977;28;709;-83
2021/04/15 06:10:39;;;;;;;;;;;;;;;21.59;27.54;97955.56;5068468;28;1181;-85
2021/04/15 06:13:06;;;;;;;;;;;;;;;21.56;27.51;97964.94;5084533;28;665;-85
2021/04/15 06:15:38;;;;;;;;;;;;;;;21.55;27.63;97958.50;5067495;28;1324;-85
2021/04/15 06:18:24;;;;;;;;;;;;;;;21.67;27.34;97976.00;5083543;28;1976;-87
2021/04/15 06:20:54;;;;;;;;;;;;;;;22.06;26.74;97952.19;5083554;28;1170;-86
2021/04/15 06:23:24;;;;;;;;;;;;;;;22.40;26.17;97956.50;5067315;28;1359;-86
2021/04/15 06:25:50;;;;;;;;;;;;;;;22.08;26.39;97961.06;5084243;28;598;-86
2021/04/15 06:28:34;;;;;;;;;;;;;;;21.75;26.70;97955.50;5065687;28;1110;-83
2021/04/15 06:31:11;;;;;;;;;;;;;;;21.67;27.14;97962.63;5082439;28;1372;-86
2021/04/15 06:33:37;;;;;;;;;;;;;;;21.69;26.96;97965.78;5081904;28;958;-86
2021/04/15 06:36:02;;;;;;;;;;;;;;;21.59;27.39;97949.88;5067729;28;1290;-86
2021/04/15 06:38:40;;;;;;;;;;;;;;;21.47;27.61;97936.47;5083766;28;1969;-85
2021/04/15 06:41:06;;;;;;;;;;;;;;;21.57;27.17;97946.72;5068192;28;1295;-86
2021/04/15 06:43:34;;;;;;;;;;;;;;;21.55;27.39;97946.34;5083360;28;666;-85
2021/04/15 06:46:09;;;;;;;;;;;;;;;21.70;26.84;97958.88;5066846;28;1472;-85
2021/04/15 06:48:53;;;;;;;;;;;;;;;21.65;27.11;97952.97;5083492;28;872;-86
2021/04/15 06:51:25;;;;;;;;;;;;;;;21.59;27.30;97947.06;5084184;28;594;-86
2021/04/15 06:53:54;;;;;;;;;;;;;;;21.60;27.22;97959.97;5065956;28;1275;-86
2021/04/15 06:56:24;;;;;;;;;;;;;;;21.68;27.01;97952.88;5082858;28;996;-85
2021/04/15 06:59:04;;;;;;;;;;;;;;;21.66;27.07;97955.38;5082989;28;1945;-86
2021/04/15 07:01:34;;;;;;;;;;;;;;;21.62;27.05;97957.50;5067167;28;1189;-86
2021/04/15 07:04:00;;;;;;;;;;;;;;;21.66;27.10;97938.38;5082901;28;829;-85
2021/04/15 07:06:28;;;;;;;;;;;;;;;21.69;26.79;97936.69;5066628;28;1168;-85
2021/04/15 07:09:15;;;;;;;;;;;;;;;22.52;25.48;97936.66;5083313;28;1197;-86
2021/04/15 07:12:08;;;;;;;;;;;;;;;22.89;24.80;97942.81;5026931;28;1472;-86
2021/04/15 07:14:40;;;;;;;;;;;;;;;22.00;26.02;97934.16;5082517;28;709;-86
2021/04/15 07:17:24;;;;;;;;;;;;;;;21.88;26.43;97954.78;5083354;28;1050;-83
2021/04/15 07:19:52;;;;;;;;;;;;;;;21.71;26.61;97946.34;5082521;28;1972;-85
2021/04/15 07:22:28;;;;;;;;;;;;;;;21.81;26.52;97947.25;5083108;28;912;-86
2021/04/15 07:24:53;;;;;;;;;;;;;;;21.71;26.66;97962.50;5082308;28;594;-85
2021/04/15 07:27:51;;;;;;;;;;;;;;;21.58;27.05;97966.09;5083397;28;1312;-83
2021/04/15 07:30:35;;;;;;;;;;;;;;;21.65;27.03;97972.78;5039191;28;1223;-86
2021/04/15 07:33:20;;;;;;;;;;;;;;;21.62;27.07;97982.19;5082007;28;942;-86
2021/04/15 07:35:54;;;;;;;;;;;;;;;21.59;26.89;97973.31;5082858;28;914;-87
2021/04/15 07:38:29;;;;;;;;;;;;;;;21.50;27.03;97972.38;5083207;28;1883;-85
2021/04/15 07:41:00;;;;;;;;;;;;;;;21.61;26.81;97975.75;5084041;28;701;-86
2021/04/15 07:43:29;;;;;;;;;;;;;;;21.46;27.38;97968.88;5082380;28;601;-86
2021/04/15 07:46:03;;;;;;;;;;;;;;;21.63;26.85;97966.78;5083538;28;1211;-86
2021/04/15 07:48:32;;;;;;;;;;;;;;;21.58;27.23;97962.47;5083185;28;965;-85
2021/04/15 07:51:07;;;;;;;;;;;;;;;21.74;26.78;97951.09;5083169;28;915;-86
2021/04/15 07:53:35;;;;;;;;;;;;;;;21.73;26.88;97943.84;5081642;28;1273;-86
2021/04/15 07:56:08;;;;;;;;;;;;;;;21.71;26.92;97943.50;5084016;28;668;-86
2021/04/15 07:58:39;;;;;;;;;;;;;;;22.35;25.73;97943.69;5081194;28;1906;-83
2021/04/15 08:01:31;;;;;;;;;;;;;;;22.58;25.25;97939.72;5082613;28;912;-85
2021/04/15 08:03:59;;;;;;;;;;;;;;;22.05;26.01;97936.44;5080968;28;668;-85
2021/04/15 08:06:42;;;;;;;;;;;;;;;21.90;26.52;97940.94;5082703;28;1246;-86
2021/04/15 08:09:14;;;;;;;;;;;;;;;21.88;26.45;97946.28;5081487;28;634;-86
2021/04/15 08:11:42;;;;;;;;;;;;;;;21.68;26.96;97949.25;5082356;28;1268;-85
2021/04/15 08:14:14;;;;;;;;;;;;;;;22.03;26.18;97950.28;5081251;28;1173;-86
2021/04/15 08:16:45;;;;;;;;;;;;;;;21.82;26.40;97954.53;5082249;28;629;-86
2021/04/15 08:19:16;;;;;;;;;;;;;;;22.05;26.35;97957.06;5065145;28;1910;-83
2021/04/15 08:21:41;;;;;;;;;;;;;;;21.73;26.71;97955.16;5081992;28;665;-86
2021/04/15 08:24:10;;;;;;;;;;;;;;;21.64;26.76;97972.00;5082619;28;649;-86
2021/04/15 08:26:41;;;;;;;;;;;;;;;21.70;26.95;97978.69;5064901;28;1145;-86
2021/04/15 08:29:27;;;;;;;;;;;;;;;21.65;26.96;97976.41;5082000;28;905;-85
2021/04/15 08:32:06;;;;;;;;;;;;;;;21.60;27.10;97974.13;5071957;28;995;-86
2021/04/15 08:34:35;;;;;;;;;;;;;;;21.64;27.08;97974.81;5064844;28;1191;-86
2021/04/15 08:37:19;;;;;;;;;;;;;;;21.24;27.55;97963.72;5081965;28;1281;-86
2021/04/15 08:39:49;;;;;;;;;;;;;;;21.46;26.89;97966.03;5081790;28;1954;-86
2021/04/15 08:42:19;;;;;;;;;;;;;;;21.91;26.33;97960.31;5081272;28;959;-85
2021/04/15 08:44:45;;;;;;;;;;;;;;;21.66;26.69;97966.69;5080933;28;907;-86
2021/04/15 08:47:23;;;;;;;;;;;;;;;21.62;26.71;97960.34;5082275;28;1152;-86
2021/04/15 08:50:07;;;;;;;;;;;;;;;21.51;26.95;97954.16;5082042;28;618;-86
2021/04/15 08:52:43;;;;;;;;;;;;;;;21.56;27.25;97967.78;5065524;28;1456;-86
2021/04/15 08:55:09;;;;;;;;;;;;;;;21.53;27.08;97946.00;5082920;28;622;-86
2021/04/15 08:57:53;;;;;;;;;;;;;;;21.63;26.82;97944.94;5062156;28;1901;-86
2021/04/15 09:00:25;;;;;;;;;;;;;;;21.72;26.86;97947.13;5078816;28;677;-85
2021/04/15 09:03:12;;;;;;;;;;;;;;;21.62;27.17;97943.34;5078575;28;798;-85
2021/04/15 09:05:56;;;;;;;;;;;;;;;21.47;27.35;97922.31;5061593;28;900;-86
2021/04/15 09:08:41;;;;;;;;;;;;;;;21.73;26.85;97931.72;5062431;28;617;-86
2021/04/15 09:11:09;;;;;;;;;;;;;;;21.72;26.72;97928.09;5079297;28;673;-86
2021/04/15 09:13:44;;;;;;;;;;;;;;;21.61;26.95;97924.78;5045196;28;1185;-85
2021/04/15 09:16:28;;;;;;;;;;;;;;;21.55;27.10;97937.84;5062540;28;802;-86
2021/04/15 09:19:10;;;;;;;;;;;;;;;21.66;26.87;97932.72;5081030;28;1898;-85
2021/04/15 09:21:42;;;;;;;;;;;;;;;21.63;26.85;97927.16;5065588;28;956;-86
2021/04/15 09:24:27;;;;;;;;;;;;;;;21.60;27.13;97928.81;5082433;28;1219;-86
2021/04/15 09:26:59;;;;;;;;;;;;;;;21.58;26.91;97939.81;5045558;28;1077;-86
2021/04/15 09:29:36;;;;;;;;;;;;;;;21.56;27.19;97936.63;5081853;28;1246;-86
2021/04/15 09:32:07;;;;;;;;;;;;;;;21.61;26.91;97953.09;5065846;28;678;-84
2021/04/15 09:34:47;;;;;;;;;;;;;;;21.66;27.01;97944.03;5047220;28;1152;-83
2021/04/15 09:37:39;;;;;;;;;;;;;;;21.62;26.77;97937.69;5080273;28;1140;-83
2021/04/15 09:40:11;;;;;;;;;;;;;;;21.68;26.97;97940.75;5050371;28;1125;-86
2021/04/15 09:42:39;;;;;;;;;;;;;;;21.65;27.07;97941.63;5049390;28;1181;-85
2021/04/15 09:45:23;;;;;;;;;;;;;;;21.50;27.18;97938.41;5048210;28;1189;-86
2021/04/15 09:47:56;;;;;;;;;;;;;;;21.36;27.75;97947.28;5081377;28;793;-85
2021/04/15 09:50:24;;;;;;;;;;;;;;;21.39;27.36;97944.34;5064656;28;889;-86
2021/04/15 09:52:53;;;;;;;;;;;;;;;21.50;27.20;97949.72;5080852;28;925;-85
2021/04/15 09:55:33;;;;;;;;;;;;;;;21.46;27.31;97946.22;5065563;28;745;-86
2021/04/15 09:58:19;;;;;;;;;;;;;;;21.50;27.35;97952.56;5092532;28;1901;-82
2021/04/15 10:00:48;;;;;;;;;;;;;;;22.00;26.37;97951.97;5059479;28;1103;-86
2021/04/15 10:03:22;;;;;;;;;;;;;;;22.36;25.88;97950.94;5087312;28;711;-83
2021/04/15 10:06:06;;;;;;;;;;;;;;;22.07;26.49;97956.63;5086279;28;983;-83
2021/04/15 10:08:31;;;;;;;;;;;;;;;21.63;26.96;97959.09;5103823;28;801;-84
2021/04/15 10:11:02;;;;;;;;;;;;;;;21.58;26.91;97948.31;5106042;28;610;-85
2021/04/15 10:13:43;;;;;;;;;;;;;;;21.51;27.08;97951.34;5088536;28;693;-86
2021/04/15 10:16:20;;;;;;;;;;;;;;;21.46;27.13;97934.91;5072500;28;1142;-86
2021/04/15 10:19:08;;;;;;;;;;;;;;;21.43;27.37;97950.72;5076395;28;1913;-88
2021/04/15 10:21:53;;;;;;;;;;;;;;;21.31;27.63;97940.13;5068866;28;1110;-87
2021/04/15 10:24:18;;;;;;;;;;;;;;;21.44;27.42;97937.34;5093423;28;1198;-88
2021/04/15 10:26:47;;;;;;;;;;;;;;;22.03;26.71;97947.44;5093439;28;1272;-87
2021/04/15 10:29:13;;;;;;;;;;;;;;;22.39;26.10;97941.53;5093690;28;658;-88
2021/04/15 10:31:57;;;;;;;;;;;;;;;22.25;26.19;97942.75;5093755;28;734;-87
2021/04/15 10:34:29;;;;;;;;;;;;;;;21.82;26.89;97938.31;5111003;28;1063;-87
2021/04/15 10:37:33;;;;;;;;;;;;;;;21.67;26.86;97939.97;5092548;28;1038;-86
2021/04/15 10:40:17;;;;;;;;;;;;;;;21.43;27.44;97947.09;5029365;28;1172;-88
2021/04/15 10:42:48;;;;;;;;;;;;;;;22.17;26.50;97932.06;5030035;28;603;-87
2021/04/15 10:45:20;;;;;;;;;;;;;;;22.29;26.07;97929.28;5054966;28;1108;-88
2021/04/15 10:47:55;;;;;;;;;;;;;;;21.93;26.91;97935.19;5093815;28;1231;-88
2021/04/15 10:50:50;;;;;;;;;;;;;;;21.88;26.60;97940.59;5093785;28;654;-88
2021/04/15 10:53:20;;;;;;;;;;;;;;;21.66;27.20;97935.56;5110758;28;981;-88
2021/04/15 10:55:55;;;;;;;;;;;;;;;21.53;27.47;97924.16;5109148;28;1376;-88
2021/04/15 10:58:34;;;;;;;;;;;;;;;21.62;27.44;97926.34;5090711;28;1910;-87
2021/04/15 11:01:19;;;;;;;;;;;;;;;21.51;27.25;97937.97;5059481;28;1158;-88
2021/04/15 11:03:45;;;;;;;;;;;;;;;21.48;27.60;97944.50;5110747;28;1097;-88
2021/04/15 11:06:27;;;;;;;;;;;;;;;21.61;27.22;97936.09;5110006;28;1148;-88
2021/04/15 11:08:53;;;;;;;;;;;;;;;21.43;27.43;97938.59;5076636;28;1172;-87
2021/04/15 11:11:28;;;;;;;;;;;;;;;21.73;27.14;97929.69;5075675;28;964;-88
2021/04/15 11:14:04;;;;;;;;;;;;;;;22.03;26.57;97938.94;5093674;28;927;-88
2021/04/15 11:16:31;;;;;;;;;;;;;;;22.31;26.04;97931.66;5093193;28;1157;-88
2021/04/15 11:19:05;;;;;;;;;;;;;;;22.27;26.20;97931.75;5076565;28;1965;-88
2021/04/15 11:21:34;;;;;;;;;;;;;;;21.83;26.96;97936.28;5076411;28;1251;-88
2021/04/15 11:24:19;;;;;;;;;;;;;;;21.64;27.23;97929.53;5077091;28;1322;-88
2021/04/15 11:26:46;;;;;;;;;;;;;;;21.61;27.13;97933.25;5092809;28;1198;-88
2021/04/15 11:29:19;;;;;;;;;;;;;;;21.48;27.17;97938.06;5093117;28;1285;-88
2021/04/15 11:31:45;;;;;;;;;;;;;;;21.43;27.28;97936.56;5076866;28;1162;-88
2021/04/15 11:34:12;;;;;;;;;;;;;;;21.47;27.30;97925.94;5076130;28;1300;-87
2021/04/15 11:36:39;;;;;;;;;;;;;;;21.42;27.50;97922.88;5092778;28;1110;-88
2021/04/15 11:39:04;;;;;;;;;;;;;;;21.45;27.37;97925.63;5076506;28;1898;-88
2021/04/15 11:41:31;;;;;;;;;;;;;;;21.55;27.28;97926.53;5108599;28;1162;-88
2021/04/15 11:44:07;;;;;;;;;;;;;;;21.48;27.35;97921.88;5093819;28;1035;-88
2021/04/15 11:46:34;;;;;;;;;;;;;;;21.45;27.47;97928.44;5075506;28;1197;-88
2021/04/15 11:49:19;;;;;;;;;;;;;;;21.50;27.20;97936.38;5076335;28;1205;-88
2021/04/15 11:51:53;;;;;;;;;;;;;;;21.45;27.54;97933.28;5109270;28;1233;-88
2021/04/15 11:54:28;;;;;;;;;;;;;;;21.90;27.08;97935.28;5109832;28;940;-87
2021/04/15 11:56:54;;;;;;;;;;;;;;;22.33;25.98;97921.47;5075165;28;1300;-89
2021/04/15 11:59:25;;;;;;;;;;;;;;;22.11;26.25;97917.66;5092417;28;1979;-88
2021/04/15 12:02:22;;;;;;;;;;;;;;;21.64;26.93;97918.19;5079754;28;1507;-88
2021/04/15 12:04:49;;;;;;;;;;;;;;;21.45;27.35;97904.97;5074967;28;1060;-88
2021/04/15 12:07:22;;;;;;;;;;;;;;;21.49;27.32;97911.34;5074489;28;642;-88
2021/04/15 12:09:49;;;;;;;;;;;;;;;22.03;26.73;97904.94;5092256;28;1201;-88
2021/04/15 12:12:44;;;;;;;;;;;;;;;22.26;25.99;97918.84;5092121;28;1195;-88
2021/04/15 12:15:11;;;;;;;;;;;;;;;22.52;25.81;97913.19;5091748;28;1187;-87
2021/04/15 12:17:36;;;;;;;;;;;;;;;22.39;25.58;97915.22;5075229;28;1968;-88
2021/04/15 12:20:06;;;;;;;;;;;;;;;21.97;26.56;97918.09;5108019;28;1173;-88
2021/04/15 12:22:37;;;;;;;;;;;;;;;21.77;26.65;97909.75;5125625;28;1181;-88
2021/04/15 12:25:27;;;;;;;;;;;;;;;21.66;27.00;97893.06;5108770;28;1097;-88
2021/04/15 12:28:14;;;;;;;;;;;;;;;21.67;27.06;97911.66;5124954;28;1352;-88
2021/04/15 12:30:39;;;;;;;;;;;;;;;21.54;27.27;97907.97;5094837;28;1049;-87
2021/04/15 12:33:06;;;;;;;;;;;;;;;21.57;27.13;97896.53;5075083;28;1458;-88
2021/04/15 12:36:04;;;;;;;;;;;;;;;21.59;27.13;97901.75;5058273;28;1508;-88
2021/04/15 12:38:38;;;;;;;;;;;;;;;21.64;26.79;97901.22;5065594;28;1977;-88
2021/04/15 12:41:05;;;;;;;;;;;;;;;21.67;27.08;97894.66;5107658;28;995;-88
2021/04/15 12:43:31;;;;;;;;;;;;;;;21.79;26.48;97893.88;5075124;28;1331;-87
2021/04/15 12:45:59;;;;;;;;;;;;;;;21.73;26.93;97886.41;5074793;28;1272;-88
2021/04/15 12:48:31;;;;;;;;;;;;;;;21.87;26.35;97900.16;5091028;28;1222;-88
2021/04/15 12:50:57;;;;;;;;;;;;;;;21.82;26.41;97904.34;5091059;28;1166;-88
2021/04/15 12:53:23;;;;;;;;;;;;;;;21.75;26.46;97901.69;5078538;28;861;-87
2021/04/15 12:55:50;;;;;;;;;;;;;;;21.79;26.38;97890.28;5077884;28;1211;-88
2021/04/15 12:58:15;;;;;;;;;;;;;;;22.25;25.72;97900.25;5095499;28;1902;-88
2021/04/15 13:00:42;;;;;;;;;;;;;;;22.50;25.33;97898.69;5112847;28;980;-89
2021/04/15 13:03:09;;;;;;;;;;;;;;;22.12;25.88;97902.25;5062687;28;1230;-88
2021/04/15 13:05:38;;;;;;;;;;;;;;;21.69;26.51;97895.00;5078583;28;1231;-89
2021/04/15 13:08:23;;;;;;;;;;;;;;;21.73;26.29;97887.19;5112677;28;745;-87
2021/04/15 13:10:49;;;;;;;;;;;;;;;21.81;26.01;97894.25;5077472;28;1310;-88
2021/04/15 13:13:18;;;;;;;;;;;;;;;21.87;26.08;97885.22;5077892;28;1188;-88
2021/04/15 13:15:44;;;;;;;;;;;;;;;21.67;26.27;97889.00;5078472;28;647;-88
2021/04/15 13:18:32;;;;;;;;;;;;;;;21.69;26.39;97886.50;5095799;28;1957;-88
2021/04/15 13:21:07;;;;;;;;;;;;;;;22.32;25.45;97900.00;5077763;28;725;-87
2021/04/15 13:23:34;;;;;;;;;;;;;;;22.67;24.97;97899.34;5077371;28;1095;-88
2021/04/15 13:26:00;;;;;;;;;;;;;;;22.07;25.66;97894.28;5077212;28;1319;-88